sensor_id;sensor_type;location;lat;lon;timestamp;P1;durP1;ratioP1;P2;durP2;ratioP2
11646;SDS011;5880;52.342;9.662;2023-05-10T00:00:24;4.47;;;2.10;;
11646;SDS011;5880;52.342;9.662;2023-05-10T00:02:50;2.40;;;1.73;;
11646;SDS011;5880;52.342;9.662;2023-05-10T00:05:16;2.43;;;1.97;;
11646;SDS011;5880;52.342;9.662;2023-05-10T00:07:41;2.57;;;2.00;;
11646;SDS011;5880;52.342;9.662;2023-05-10T00:10:09;4.00;;;2.20;;
11646;SDS011;5880;52.342;9.662;2023-05-10T00:12:36;2.57;;;1.90;;
11646;SDS011;5880;52.342;9.662;2023-05-10T00:15:02;3.77;;;2.10;;
11646;SDS011;5880;52.342;9.662;2023-05-10T00:17:28;2.23;;;1.77;;
11646;SDS011;5880;52.342;9.662;2023-05-10T00:19:54;3.37;;;2.00;;
11646;SDS011;5880;52.342;9.662;2023-05-10T00:22:20;2.80;;;1.83;;
11646;SDS011;5880;52.342;9.662;2023-05-10T00:24:45;2.57;;;2.03;;
11646;SDS011;5880;52.342;9.662;2023-05-10T00:27:11;4.07;;;2.03;;
11646;SDS011;5880;52.342;9.662;2023-05-10T00:29:37;2.53;;;1.77;;
11646;SDS011;5880;52.342;9.662;2023-05-10T00:32:02;2.33;;;2.10;;
11646;SDS011;5880;52.342;9.662;2023-05-10T00:34:30;1.87;;;1.77;;
11646;SDS011;5880;52.342;9.662;2023-05-10T00:36:56;3.03;;;2.20;;
11646;SDS011;5880;52.342;9.662;2023-05-10T00:39:22;2.17;;;1.80;;
11646;SDS011;5880;52.342;9.662;2023-05-10T00:41:48;1.87;;;1.73;;
11646;SDS011;5880;52.342;9.662;2023-05-10T00:44:14;2.70;;;1.83;;
11646;SDS011;5880;52.342;9.662;2023-05-10T00:46:40;4.20;;;2.00;;
11646;SDS011;5880;52.342;9.662;2023-05-10T00:49:06;4.03;;;2.03;;
11646;SDS011;5880;52.342;9.662;2023-05-10T00:51:32;1.97;;;1.77;;
11646;SDS011;5880;52.342;9.662;2023-05-10T00:53:58;2.50;;;1.90;;
11646;SDS011;5880;52.342;9.662;2023-05-10T00:56:24;2.20;;;1.97;;
11646;SDS011;5880;52.342;9.662;2023-05-10T00:58:51;3.53;;;2.00;;
11646;SDS011;5880;52.342;9.662;2023-05-10T01:01:17;1.90;;;1.80;;
11646;SDS011;5880;52.342;9.662;2023-05-10T01:03:42;2.30;;;1.90;;
11646;SDS011;5880;52.342;9.662;2023-05-10T01:06:09;3.47;;;1.90;;
11646;SDS011;5880;52.342;9.662;2023-05-10T01:08:36;4.13;;;2.10;;
11646;SDS011;5880;52.342;9.662;2023-05-10T01:11:02;4.03;;;2.20;;
11646;SDS011;5880;52.342;9.662;2023-05-10T01:15:58;5.30;;;2.30;;
11646;SDS011;5880;52.342;9.662;2023-05-10T01:18:28;2.40;;;2.20;;
11646;SDS011;5880;52.342;9.662;2023-05-10T01:21:10;3.20;;;2.10;;
11646;SDS011;5880;52.342;9.662;2023-05-10T01:23:55;2.30;;;1.90;;
11646;SDS011;5880;52.342;9.662;2023-05-10T01:27:02;2.40;;;2.20;;
11646;SDS011;5880;52.342;9.662;2023-05-10T01:29:59;4.33;;;2.17;;
11646;SDS011;5880;52.342;9.662;2023-05-10T01:33:00;2.03;;;1.80;;
11646;SDS011;5880;52.342;9.662;2023-05-10T01:35:47;2.17;;;2.00;;
11646;SDS011;5880;52.342;9.662;2023-05-10T01:38:29;1.97;;;1.80;;
11646;SDS011;5880;52.342;9.662;2023-05-10T01:43:57;3.37;;;2.10;;
11646;SDS011;5880;52.342;9.662;2023-05-10T01:46:46;2.27;;;2.07;;
11646;SDS011;5880;52.342;9.662;2023-05-10T01:49:26;4.67;;;2.37;;
11646;SDS011;5880;52.342;9.662;2023-05-10T01:52:02;2.30;;;2.10;;
11646;SDS011;5880;52.342;9.662;2023-05-10T01:54:35;2.30;;;2.10;;
11646;SDS011;5880;52.342;9.662;2023-05-10T01:57:09;2.97;;;2.40;;
11646;SDS011;5880;52.342;9.662;2023-05-10T01:59:39;2.07;;;1.87;;
11646;SDS011;5880;52.342;9.662;2023-05-10T02:02:10;2.47;;;2.27;;
11646;SDS011;5880;52.342;9.662;2023-05-10T02:04:39;2.47;;;2.27;;
11646;SDS011;5880;52.342;9.662;2023-05-10T02:07:07;2.30;;;2.10;;
11646;SDS011;5880;52.342;9.662;2023-05-10T02:09:34;2.50;;;2.30;;
11646;SDS011;5880;52.342;9.662;2023-05-10T02:12:02;3.23;;;2.30;;
11646;SDS011;5880;52.342;9.662;2023-05-10T02:14:32;2.90;;;2.27;;
11646;SDS011;5880;52.342;9.662;2023-05-10T02:17:02;2.93;;;2.30;;
11646;SDS011;5880;52.342;9.662;2023-05-10T02:19:30;2.53;;;2.23;;
11646;SDS011;5880;52.342;9.662;2023-05-10T02:21:59;4.50;;;2.50;;
11646;SDS011;5880;52.342;9.662;2023-05-10T02:24:26;2.67;;;2.47;;
11646;SDS011;5880;52.342;9.662;2023-05-10T02:26:54;3.90;;;2.50;;
11646;SDS011;5880;52.342;9.662;2023-05-10T02:29:21;3.17;;;2.30;;
11646;SDS011;5880;52.342;9.662;2023-05-10T02:31:53;2.77;;;2.47;;
11646;SDS011;5880;52.342;9.662;2023-05-10T02:34:23;3.07;;;2.40;;
11646;SDS011;5880;52.342;9.662;2023-05-10T02:36:51;2.70;;;2.30;;
11646;SDS011;5880;52.342;9.662;2023-05-10T02:39:18;2.53;;;2.33;;
11646;SDS011;5880;52.342;9.662;2023-05-10T02:41:46;2.33;;;2.13;;
11646;SDS011;5880;52.342;9.662;2023-05-10T02:44:15;2.80;;;2.40;;
11646;SDS011;5880;52.342;9.662;2023-05-10T02:46:45;3.10;;;2.60;;
11646;SDS011;5880;52.342;9.662;2023-05-10T02:49:11;2.60;;;2.40;;
11646;SDS011;5880;52.342;9.662;2023-05-10T02:51:40;2.70;;;2.47;;
11646;SDS011;5880;52.342;9.662;2023-05-10T02:54:18;3.87;;;2.60;;
11646;SDS011;5880;52.342;9.662;2023-05-10T02:56:53;3.97;;;2.20;;
11646;SDS011;5880;52.342;9.662;2023-05-10T02:59:27;2.83;;;2.20;;
11646;SDS011;5880;52.342;9.662;2023-05-10T03:01:53;2.57;;;2.33;;
11646;SDS011;5880;52.342;9.662;2023-05-10T03:04:19;2.93;;;2.60;;
11646;SDS011;5880;52.342;9.662;2023-05-10T03:06:45;2.70;;;2.50;;
11646;SDS011;5880;52.342;9.662;2023-05-10T03:09:11;3.23;;;2.90;;
11646;SDS011;5880;52.342;9.662;2023-05-10T03:14:45;2.83;;;2.63;;
11646;SDS011;5880;52.342;9.662;2023-05-10T03:17:35;2.93;;;2.30;;
11646;SDS011;5880;52.342;9.662;2023-05-10T03:20:22;3.57;;;2.37;;
11646;SDS011;5880;52.342;9.662;2023-05-10T03:25:42;3.40;;;2.67;;
11646;SDS011;5880;52.342;9.662;2023-05-10T03:28:10;3.60;;;2.70;;
11646;SDS011;5880;52.342;9.662;2023-05-10T03:30:37;3.13;;;2.73;;
11646;SDS011;5880;52.342;9.662;2023-05-10T03:33:05;3.73;;;2.80;;
11646;SDS011;5880;52.342;9.662;2023-05-10T03:35:31;2.90;;;2.60;;
11646;SDS011;5880;52.342;9.662;2023-05-10T03:37:57;2.90;;;2.60;;
11646;SDS011;5880;52.342;9.662;2023-05-10T03:40:23;2.83;;;2.50;;
11646;SDS011;5880;52.342;9.662;2023-05-10T03:42:50;3.73;;;3.00;;
11646;SDS011;5880;52.342;9.662;2023-05-10T03:45:15;3.40;;;3.10;;
11646;SDS011;5880;52.342;9.662;2023-05-10T03:47:41;3.33;;;2.90;;
11646;SDS011;5880;52.342;9.662;2023-05-10T03:50:07;3.70;;;3.07;;
11646;SDS011;5880;52.342;9.662;2023-05-10T03:52:33;2.97;;;2.67;;
11646;SDS011;5880;52.342;9.662;2023-05-10T03:54:58;4.17;;;2.77;;
11646;SDS011;5880;52.342;9.662;2023-05-10T03:57:27;4.63;;;2.80;;
11646;SDS011;5880;52.342;9.662;2023-05-10T03:59:53;3.93;;;3.10;;
11646;SDS011;5880;52.342;9.662;2023-05-10T04:02:19;3.40;;;3.10;;
11646;SDS011;5880;52.342;9.662;2023-05-10T04:04:44;3.70;;;2.97;;
11646;SDS011;5880;52.342;9.662;2023-05-10T04:07:10;3.03;;;2.80;;
11646;SDS011;5880;52.342;9.662;2023-05-10T04:09:35;3.27;;;3.00;;
11646;SDS011;5880;52.342;9.662;2023-05-10T04:12:01;4.60;;;2.77;;
11646;SDS011;5880;52.342;9.662;2023-05-10T04:14:27;3.13;;;2.83;;
11646;SDS011;5880;52.342;9.662;2023-05-10T04:16:53;3.60;;;3.30;;
11646;SDS011;5880;52.342;9.662;2023-05-10T04:19:18;3.30;;;3.00;;
11646;SDS011;5880;52.342;9.662;2023-05-10T04:21:44;3.60;;;3.30;;
11646;SDS011;5880;52.342;9.662;2023-05-10T04:24:10;4.10;;;3.10;;
11646;SDS011;5880;52.342;9.662;2023-05-10T04:26:35;3.40;;;3.10;;
11646;SDS011;5880;52.342;9.662;2023-05-10T04:29:01;4.63;;;3.27;;
11646;SDS011;5880;52.342;9.662;2023-05-10T04:31:27;4.53;;;3.30;;
11646;SDS011;5880;52.342;9.662;2023-05-10T04:33:53;3.83;;;3.10;;
11646;SDS011;5880;52.342;9.662;2023-05-10T04:36:18;4.17;;;3.30;;
11646;SDS011;5880;52.342;9.662;2023-05-10T04:38:44;3.47;;;3.17;;
11646;SDS011;5880;52.342;9.662;2023-05-10T04:41:10;4.30;;;3.20;;
11646;SDS011;5880;52.342;9.662;2023-05-10T04:43:36;3.60;;;3.30;;
11646;SDS011;5880;52.342;9.662;2023-05-10T04:46:03;3.87;;;2.93;;
11646;SDS011;5880;52.342;9.662;2023-05-10T04:48:29;3.43;;;3.07;;
11646;SDS011;5880;52.342;9.662;2023-05-10T04:50:55;3.60;;;3.30;;
11646;SDS011;5880;52.342;9.662;2023-05-10T04:53:21;5.73;;;3.50;;
11646;SDS011;5880;52.342;9.662;2023-05-10T04:55:47;3.47;;;3.17;;
11646;SDS011;5880;52.342;9.662;2023-05-10T04:58:13;3.60;;;3.30;;
11646;SDS011;5880;52.342;9.662;2023-05-10T05:00:40;4.07;;;3.20;;
11646;SDS011;5880;52.342;9.662;2023-05-10T05:03:05;4.50;;;3.50;;
11646;SDS011;5880;52.342;9.662;2023-05-10T05:05:31;4.00;;;3.40;;
11646;SDS011;5880;52.342;9.662;2023-05-10T05:07:56;4.60;;;3.50;;
11646;SDS011;5880;52.342;9.662;2023-05-10T05:10:22;3.43;;;3.13;;
11646;SDS011;5880;52.342;9.662;2023-05-10T05:12:48;5.13;;;3.90;;
11646;SDS011;5880;52.342;9.662;2023-05-10T05:15:13;4.50;;;3.87;;
11646;SDS011;5880;52.342;9.662;2023-05-10T05:17:41;6.07;;;3.60;;
11646;SDS011;5880;52.342;9.662;2023-05-10T05:20:08;4.07;;;3.40;;
11646;SDS011;5880;52.342;9.662;2023-05-10T05:22:35;7.33;;;3.60;;
11646;SDS011;5880;52.342;9.662;2023-05-10T05:25:01;5.73;;;3.80;;
11646;SDS011;5880;52.342;9.662;2023-05-10T05:27:28;3.77;;;3.43;;
11646;SDS011;5880;52.342;9.662;2023-05-10T05:29:57;4.07;;;3.43;;
11646;SDS011;5880;52.342;9.662;2023-05-10T05:32:23;3.93;;;3.40;;
11646;SDS011;5880;52.342;9.662;2023-05-10T05:34:50;4.30;;;3.63;;
11646;SDS011;5880;52.342;9.662;2023-05-10T05:37:17;4.07;;;3.67;;
11646;SDS011;5880;52.342;9.662;2023-05-10T05:39:45;5.57;;;3.67;;
11646;SDS011;5880;52.342;9.662;2023-05-10T05:42:12;4.50;;;3.50;;
11646;SDS011;5880;52.342;9.662;2023-05-10T05:44:38;4.50;;;3.60;;
11646;SDS011;5880;52.342;9.662;2023-05-10T05:47:04;4.30;;;3.70;;
11646;SDS011;5880;52.342;9.662;2023-05-10T05:49:31;3.47;;;3.17;;
11646;SDS011;5880;52.342;9.662;2023-05-10T05:52:01;4.10;;;3.70;;
11646;SDS011;5880;52.342;9.662;2023-05-10T05:54:28;3.27;;;2.97;;
11646;SDS011;5880;52.342;9.662;2023-05-10T05:56:55;3.83;;;3.43;;
11646;SDS011;5880;52.342;9.662;2023-05-10T05:59:26;4.50;;;3.77;;
11646;SDS011;5880;52.342;9.662;2023-05-10T06:01:51;3.70;;;3.27;;
11646;SDS011;5880;52.342;9.662;2023-05-10T06:04:18;3.97;;;3.57;;
11646;SDS011;5880;52.342;9.662;2023-05-10T06:06:45;3.63;;;3.23;;
11646;SDS011;5880;52.342;9.662;2023-05-10T06:09:11;3.70;;;3.20;;
11646;SDS011;5880;52.342;9.662;2023-05-10T06:11:37;3.70;;;3.30;;
11646;SDS011;5880;52.342;9.662;2023-05-10T06:14:03;3.40;;;3.10;;
11646;SDS011;5880;52.342;9.662;2023-05-10T06:16:31;4.67;;;3.00;;
11646;SDS011;5880;52.342;9.662;2023-05-10T06:18:57;3.77;;;3.47;;
11646;SDS011;5880;52.342;9.662;2023-05-10T06:21:23;4.50;;;3.63;;
11646;SDS011;5880;52.342;9.662;2023-05-10T06:23:49;4.80;;;3.20;;
11646;SDS011;5880;52.342;9.662;2023-05-10T06:26:14;3.40;;;3.10;;
11646;SDS011;5880;52.342;9.662;2023-05-10T06:28:40;4.00;;;3.43;;
11646;SDS011;5880;52.342;9.662;2023-05-10T06:31:06;4.70;;;3.73;;
11646;SDS011;5880;52.342;9.662;2023-05-10T06:33:32;3.97;;;3.23;;
11646;SDS011;5880;52.342;9.662;2023-05-10T06:35:58;4.33;;;3.93;;
11646;SDS011;5880;52.342;9.662;2023-05-10T06:38:24;8.00;;;5.03;;
11646;SDS011;5880;52.342;9.662;2023-05-10T06:40:50;7.77;;;4.67;;
11646;SDS011;5880;52.342;9.662;2023-05-10T06:43:16;6.40;;;4.30;;
11646;SDS011;5880;52.342;9.662;2023-05-10T06:45:42;5.20;;;4.13;;
11646;SDS011;5880;52.342;9.662;2023-05-10T06:48:07;4.20;;;3.57;;
11646;SDS011;5880;52.342;9.662;2023-05-10T06:50:33;3.97;;;3.67;;
11646;SDS011;5880;52.342;9.662;2023-05-10T06:52:59;3.80;;;3.37;;
11646;SDS011;5880;52.342;9.662;2023-05-10T06:55:26;6.17;;;3.57;;
11646;SDS011;5880;52.342;9.662;2023-05-10T06:57:53;4.03;;;3.20;;
11646;SDS011;5880;52.342;9.662;2023-05-10T07:00:19;3.40;;;3.10;;
11646;SDS011;5880;52.342;9.662;2023-05-10T07:02:45;3.97;;;3.57;;
11646;SDS011;5880;52.342;9.662;2023-05-10T07:05:12;4.20;;;3.50;;
11646;SDS011;5880;52.342;9.662;2023-05-10T07:07:38;3.47;;;3.17;;
11646;SDS011;5880;52.342;9.662;2023-05-10T07:10:04;3.43;;;3.07;;
11646;SDS011;5880;52.342;9.662;2023-05-10T07:12:31;3.37;;;3.07;;
11646;SDS011;5880;52.342;9.662;2023-05-10T07:14:56;3.50;;;3.20;;
11646;SDS011;5880;52.342;9.662;2023-05-10T07:17:22;3.40;;;2.93;;
11646;SDS011;5880;52.342;9.662;2023-05-10T07:19:48;4.13;;;2.93;;
11646;SDS011;5880;52.342;9.662;2023-05-10T07:22:14;4.00;;;3.60;;
11646;SDS011;5880;52.342;9.662;2023-05-10T07:24:42;3.23;;;2.93;;
11646;SDS011;5880;52.342;9.662;2023-05-10T07:27:09;3.37;;;3.07;;
11646;SDS011;5880;52.342;9.662;2023-05-10T07:29:35;3.43;;;3.13;;
11646;SDS011;5880;52.342;9.662;2023-05-10T07:32:01;3.87;;;3.43;;
11646;SDS011;5880;52.342;9.662;2023-05-10T07:34:28;3.50;;;3.20;;
11646;SDS011;5880;52.342;9.662;2023-05-10T07:36:55;3.50;;;3.20;;
11646;SDS011;5880;52.342;9.662;2023-05-10T07:39:21;3.43;;;3.13;;
11646;SDS011;5880;52.342;9.662;2023-05-10T07:41:47;4.27;;;2.87;;
11646;SDS011;5880;52.342;9.662;2023-05-10T07:44:12;3.43;;;2.93;;
11646;SDS011;5880;52.342;9.662;2023-05-10T07:46:38;3.47;;;2.87;;
11646;SDS011;5880;52.342;9.662;2023-05-10T07:49:03;3.30;;;2.40;;
11646;SDS011;5880;52.342;9.662;2023-05-10T07:51:29;2.10;;;1.87;;
11646;SDS011;5880;52.342;9.662;2023-05-10T07:53:55;1.50;;;1.40;;
11646;SDS011;5880;52.342;9.662;2023-05-10T07:56:23;1.20;;;1.10;;
11646;SDS011;5880;52.342;9.662;2023-05-10T07:58:54;0.70;;;0.70;;
11646;SDS011;5880;52.342;9.662;2023-05-10T08:01:31;0.60;;;0.60;;
11646;SDS011;5880;52.342;9.662;2023-05-10T08:03:59;2.43;;;0.50;;
11646;SDS011;5880;52.342;9.662;2023-05-10T08:06:25;0.50;;;0.50;;
11646;SDS011;5880;52.342;9.662;2023-05-10T08:08:55;0.60;;;0.60;;
11646;SDS011;5880;52.342;9.662;2023-05-10T08:11:21;0.50;;;0.50;;
11646;SDS011;5880;52.342;9.662;2023-05-10T08:13:47;0.50;;;0.50;;
11646;SDS011;5880;52.342;9.662;2023-05-10T08:16:15;0.70;;;0.67;;
11646;SDS011;5880;52.342;9.662;2023-05-10T08:18:42;0.60;;;0.60;;
11646;SDS011;5880;52.342;9.662;2023-05-10T08:21:10;0.60;;;0.60;;
11646;SDS011;5880;52.342;9.662;2023-05-10T08:23:36;0.77;;;0.50;;
11646;SDS011;5880;52.342;9.662;2023-05-10T08:26:02;0.63;;;0.63;;
11646;SDS011;5880;52.342;9.662;2023-05-10T08:28:28;0.80;;;0.80;;
11646;SDS011;5880;52.342;9.662;2023-05-10T08:30:53;0.83;;;0.83;;
11646;SDS011;5880;52.342;9.662;2023-05-10T08:33:19;2.47;;;1.00;;
11646;SDS011;5880;52.342;9.662;2023-05-10T08:35:45;0.90;;;0.90;;
11646;SDS011;5880;52.342;9.662;2023-05-10T08:38:10;0.80;;;0.80;;
11646;SDS011;5880;52.342;9.662;2023-05-10T08:40:37;1.13;;;0.90;;
11646;SDS011;5880;52.342;9.662;2023-05-10T08:43:07;1.17;;;1.07;;
11646;SDS011;5880;52.342;9.662;2023-05-10T08:45:39;2.27;;;0.90;;
11646;SDS011;5880;52.342;9.662;2023-05-10T08:48:10;1.10;;;1.10;;
11646;SDS011;5880;52.342;9.662;2023-05-10T08:50:37;1.03;;;0.90;;
11646;SDS011;5880;52.342;9.662;2023-05-10T08:53:06;1.20;;;1.10;;
11646;SDS011;5880;52.342;9.662;2023-05-10T08:55:36;0.70;;;0.70;;
11646;SDS011;5880;52.342;9.662;2023-05-10T08:58:06;0.80;;;0.80;;
11646;SDS011;5880;52.342;9.662;2023-05-10T09:00:33;0.97;;;0.97;;
11646;SDS011;5880;52.342;9.662;2023-05-10T09:03:00;1.60;;;1.20;;
11646;SDS011;5880;52.342;9.662;2023-05-10T09:05:28;1.30;;;0.90;;
11646;SDS011;5880;52.342;9.662;2023-05-10T09:07:54;0.90;;;0.90;;
11646;SDS011;5880;52.342;9.662;2023-05-10T09:10:20;0.90;;;0.90;;
11646;SDS011;5880;52.342;9.662;2023-05-10T09:12:48;0.93;;;0.90;;
11646;SDS011;5880;52.342;9.662;2023-05-10T09:15:15;0.87;;;0.80;;
11646;SDS011;5880;52.342;9.662;2023-05-10T09:17:42;0.90;;;0.90;;
11646;SDS011;5880;52.342;9.662;2023-05-10T09:20:09;2.07;;;1.10;;
11646;SDS011;5880;52.342;9.662;2023-05-10T09:22:35;1.00;;;1.00;;
11646;SDS011;5880;52.342;9.662;2023-05-10T09:27:34;1.17;;;1.10;;
11646;SDS011;5880;52.342;9.662;2023-05-10T09:30:03;1.10;;;1.00;;
11646;SDS011;5880;52.342;9.662;2023-05-10T09:32:44;1.23;;;1.10;;
11646;SDS011;5880;52.342;9.662;2023-05-10T09:35:13;1.00;;;1.00;;
11646;SDS011;5880;52.342;9.662;2023-05-10T09:37:42;0.90;;;0.90;;
11646;SDS011;5880;52.342;9.662;2023-05-10T09:40:11;0.90;;;0.90;;
11646;SDS011;5880;52.342;9.662;2023-05-10T09:42:51;1.87;;;1.10;;
11646;SDS011;5880;52.342;9.662;2023-05-10T09:45:23;1.53;;;1.17;;
11646;SDS011;5880;52.342;9.662;2023-05-10T09:47:51;1.00;;;1.00;;
11646;SDS011;5880;52.342;9.662;2023-05-10T09:50:18;0.80;;;0.80;;
11646;SDS011;5880;52.342;9.662;2023-05-10T09:52:49;1.43;;;1.10;;
11646;SDS011;5880;52.342;9.662;2023-05-10T09:55:18;1.17;;;1.07;;
11646;SDS011;5880;52.342;9.662;2023-05-10T09:57:47;1.20;;;1.10;;
11646;SDS011;5880;52.342;9.662;2023-05-10T10:00:22;1.10;;;1.00;;
11646;SDS011;5880;52.342;9.662;2023-05-10T10:02:55;1.40;;;1.30;;
11646;SDS011;5880;52.342;9.662;2023-05-10T10:05:29;1.30;;;1.20;;
11646;SDS011;5880;52.342;9.662;2023-05-10T10:07:56;1.42;;;1.33;;
11646;SDS011;5880;52.342;9.662;2023-05-10T10:10:26;1.77;;;1.60;;
11646;SDS011;5880;52.342;9.662;2023-05-10T10:12:53;1.65;;;1.55;;
11646;SDS011;5880;52.342;9.662;2023-05-10T10:15:20;1.38;;;1.27;;
11646;SDS011;5880;52.342;9.662;2023-05-10T10:17:48;1.42;;;1.33;;
11646;SDS011;5880;52.342;9.662;2023-05-10T10:20:14;1.38;;;1.27;;
11646;SDS011;5880;52.342;9.662;2023-05-10T10:22:42;1.30;;;1.20;;
11646;SDS011;5880;52.342;9.662;2023-05-10T10:25:09;1.60;;;1.50;;
11646;SDS011;5880;52.342;9.662;2023-05-10T10:30:39;3.15;;;1.42;;
11646;SDS011;5880;52.342;9.662;2023-05-10T10:35:53;2.35;;;1.52;;
11646;SDS011;5880;52.342;9.662;2023-05-10T10:38:22;1.40;;;1.30;;
11646;SDS011;5880;52.342;9.662;2023-05-10T10:40:51;1.90;;;1.50;;
11646;SDS011;5880;52.342;9.662;2023-05-10T10:43:32;1.40;;;1.30;;
11646;SDS011;5880;52.342;9.662;2023-05-10T10:46:14;1.83;;;1.50;;
11646;SDS011;5880;52.342;9.662;2023-05-10T10:51:38;1.77;;;1.60;;
11646;SDS011;5880;52.342;9.662;2023-05-10T10:54:10;1.92;;;1.80;;
11646;SDS011;5880;52.342;9.662;2023-05-10T10:56:37;1.90;;;1.70;;
11646;SDS011;5880;52.342;9.662;2023-05-10T10:59:03;1.92;;;1.52;;
11646;SDS011;5880;52.342;9.662;2023-05-10T11:01:35;2.08;;;1.88;;
11646;SDS011;5880;52.342;9.662;2023-05-10T11:06:33;2.00;;;1.63;;
11646;SDS011;5880;52.342;9.662;2023-05-10T11:09:10;2.13;;;1.90;;
11646;SDS011;5880;52.342;9.662;2023-05-10T11:11:53;1.83;;;1.63;;
11646;SDS011;5880;52.342;9.662;2023-05-10T11:14:20;2.65;;;1.70;;
11646;SDS011;5880;52.342;9.662;2023-05-10T11:16:47;2.50;;;1.88;;
11646;SDS011;5880;52.342;9.662;2023-05-10T11:19:13;2.22;;;1.80;;
11646;SDS011;5880;52.342;9.662;2023-05-10T11:21:48;1.92;;;1.73;;
11646;SDS011;5880;52.342;9.662;2023-05-10T11:24:17;2.00;;;1.88;;
11646;SDS011;5880;52.342;9.662;2023-05-10T11:26:45;2.50;;;2.30;;
11646;SDS011;5880;52.342;9.662;2023-05-10T11:29:15;2.55;;;2.35;;
11646;SDS011;5880;52.342;9.662;2023-05-10T11:31:45;2.25;;;2.03;;
11646;SDS011;5880;52.342;9.662;2023-05-10T11:34:22;3.03;;;2.58;;
11646;SDS011;5880;52.342;9.662;2023-05-10T11:36:55;2.92;;;2.30;;
11646;SDS011;5880;52.342;9.662;2023-05-10T11:39:25;2.65;;;2.40;;
11646;SDS011;5880;52.342;9.662;2023-05-10T11:41:53;3.28;;;2.40;;
11646;SDS011;5880;52.342;9.662;2023-05-10T11:44:19;3.38;;;2.60;;
11646;SDS011;5880;52.342;9.662;2023-05-10T11:46:45;3.33;;;2.33;;
11646;SDS011;5880;52.342;9.662;2023-05-10T11:49:11;2.70;;;2.50;;
11646;SDS011;5880;52.342;9.662;2023-05-10T11:51:38;4.32;;;2.60;;
11646;SDS011;5880;52.342;9.662;2023-05-10T11:54:07;2.80;;;2.60;;
11646;SDS011;5880;52.342;9.662;2023-05-10T11:56:35;2.28;;;2.13;;
11646;SDS011;5880;52.342;9.662;2023-05-10T11:59:05;4.20;;;2.33;;
11646;SDS011;5880;52.342;9.662;2023-05-10T12:01:32;2.28;;;2.08;;
11646;SDS011;5880;52.342;9.662;2023-05-10T12:03:59;2.60;;;2.40;;
11646;SDS011;5880;52.342;9.662;2023-05-10T12:06:37;2.35;;;2.15;;
11646;SDS011;5880;52.342;9.662;2023-05-10T12:09:06;2.75;;;2.10;;
11646;SDS011;5880;52.342;9.662;2023-05-10T12:11:35;2.88;;;2.67;;
11646;SDS011;5880;52.342;9.662;2023-05-10T12:14:05;2.95;;;2.70;;
11646;SDS011;5880;52.342;9.662;2023-05-10T12:16:31;3.50;;;2.70;;
11646;SDS011;5880;52.342;9.662;2023-05-10T12:18:58;3.20;;;2.80;;
11646;SDS011;5880;52.342;9.662;2023-05-10T12:21:25;3.03;;;2.40;;
11646;SDS011;5880;52.342;9.662;2023-05-10T12:24:03;2.90;;;2.60;;
11646;SDS011;5880;52.342;9.662;2023-05-10T12:26:30;2.60;;;2.40;;
11646;SDS011;5880;52.342;9.662;2023-05-10T12:29:11;3.63;;;2.70;;
11646;SDS011;5880;52.342;9.662;2023-05-10T12:31:48;3.05;;;2.45;;
11646;SDS011;5880;52.342;9.662;2023-05-10T12:36:56;3.50;;;2.83;;
11646;SDS011;5880;52.342;9.662;2023-05-10T12:39:26;3.35;;;2.65;;
11646;SDS011;5880;52.342;9.662;2023-05-10T12:42:06;2.83;;;2.63;;
11646;SDS011;5880;52.342;9.662;2023-05-10T12:44:32;2.95;;;2.65;;
11646;SDS011;5880;52.342;9.662;2023-05-10T12:46:57;2.90;;;2.63;;
11646;SDS011;5880;52.342;9.662;2023-05-10T12:49:23;3.10;;;2.80;;
11646;SDS011;5880;52.342;9.662;2023-05-10T12:51:48;2.60;;;2.40;;
11646;SDS011;5880;52.342;9.662;2023-05-10T12:54:17;2.50;;;2.20;;
11646;SDS011;5880;52.342;9.662;2023-05-10T12:56:43;2.75;;;2.55;;
11646;SDS011;5880;52.342;9.662;2023-05-10T12:59:08;3.58;;;3.28;;
11646;SDS011;5880;52.342;9.662;2023-05-10T13:01:34;2.88;;;2.55;;
11646;SDS011;5880;52.342;9.662;2023-05-10T13:04:00;3.03;;;2.78;;
11646;SDS011;5880;52.342;9.662;2023-05-10T13:06:25;2.65;;;2.17;;
11646;SDS011;5880;52.342;9.662;2023-05-10T13:08:51;3.13;;;2.75;;
11646;SDS011;5880;52.342;9.662;2023-05-10T13:11:18;3.63;;;2.45;;
11646;SDS011;5880;52.342;9.662;2023-05-10T13:13:44;2.80;;;2.45;;
11646;SDS011;5880;52.342;9.662;2023-05-10T13:16:10;3.33;;;2.80;;
11646;SDS011;5880;52.342;9.662;2023-05-10T13:18:36;2.42;;;2.22;;
11646;SDS011;5880;52.342;9.662;2023-05-10T13:21:01;3.78;;;2.85;;
11646;SDS011;5880;52.342;9.662;2023-05-10T13:23:28;3.17;;;2.88;;
11646;SDS011;5880;52.342;9.662;2023-05-10T13:25:54;3.08;;;2.80;;
11646;SDS011;5880;52.342;9.662;2023-05-10T13:28:20;3.25;;;2.95;;
11646;SDS011;5880;52.342;9.662;2023-05-10T13:30:45;3.55;;;3.00;;
11646;SDS011;5880;52.342;9.662;2023-05-10T13:33:11;2.80;;;2.60;;
11646;SDS011;5880;52.342;9.662;2023-05-10T13:35:37;3.22;;;2.80;;
11646;SDS011;5880;52.342;9.662;2023-05-10T13:38:02;3.20;;;2.90;;
11646;SDS011;5880;52.342;9.662;2023-05-10T13:40:28;2.72;;;2.53;;
11646;SDS011;5880;52.342;9.662;2023-05-10T13:42:54;3.33;;;2.80;;
11646;SDS011;5880;52.342;9.662;2023-05-10T13:45:19;3.03;;;2.80;;
11646;SDS011;5880;52.342;9.662;2023-05-10T13:47:45;3.60;;;2.50;;
11646;SDS011;5880;52.342;9.662;2023-05-10T13:50:11;2.53;;;2.30;;
11646;SDS011;5880;52.342;9.662;2023-05-10T13:52:37;2.55;;;2.35;;
11646;SDS011;5880;52.342;9.662;2023-05-10T13:55:02;4.07;;;2.47;;
11646;SDS011;5880;52.342;9.662;2023-05-10T13:57:28;2.60;;;2.40;;
11646;SDS011;5880;52.342;9.662;2023-05-10T13:59:55;2.90;;;2.60;;
11646;SDS011;5880;52.342;9.662;2023-05-10T14:02:22;4.13;;;3.03;;
11646;SDS011;5880;52.342;9.662;2023-05-10T14:04:47;3.22;;;2.85;;
11646;SDS011;5880;52.342;9.662;2023-05-10T14:07:13;2.33;;;2.13;;
11646;SDS011;5880;52.342;9.662;2023-05-10T14:09:42;3.35;;;2.60;;
11646;SDS011;5880;52.342;9.662;2023-05-10T14:12:08;2.42;;;2.22;;
11646;SDS011;5880;52.342;9.662;2023-05-10T14:14:34;3.50;;;2.70;;
11646;SDS011;5880;52.342;9.662;2023-05-10T14:16:59;4.82;;;2.80;;
11646;SDS011;5880;52.342;9.662;2023-05-10T14:19:25;3.63;;;3.03;;
11646;SDS011;5880;52.342;9.662;2023-05-10T14:21:52;4.25;;;3.30;;
11646;SDS011;5880;52.342;9.662;2023-05-10T14:24:17;3.80;;;3.30;;
11646;SDS011;5880;52.342;9.662;2023-05-10T14:26:43;3.58;;;3.28;;
11646;SDS011;5880;52.342;9.662;2023-05-10T14:29:08;3.50;;;3.20;;
11646;SDS011;5880;52.342;9.662;2023-05-10T14:31:34;3.60;;;3.25;;
11646;SDS011;5880;52.342;9.662;2023-05-10T14:34:00;3.60;;;3.30;;
11646;SDS011;5880;52.342;9.662;2023-05-10T14:36:25;3.95;;;3.55;;
11646;SDS011;5880;52.342;9.662;2023-05-10T14:38:51;5.47;;;3.60;;
11646;SDS011;5880;52.342;9.662;2023-05-10T14:41:17;4.30;;;3.90;;
11646;SDS011;5880;52.342;9.662;2023-05-10T14:43:43;5.43;;;3.75;;
11646;SDS011;5880;52.342;9.662;2023-05-10T14:46:08;3.90;;;3.40;;
11646;SDS011;5880;52.342;9.662;2023-05-10T14:48:34;5.60;;;3.72;;
11646;SDS011;5880;52.342;9.662;2023-05-10T14:51:00;4.47;;;3.85;;
11646;SDS011;5880;52.342;9.662;2023-05-10T14:53:26;5.38;;;4.10;;
11646;SDS011;5880;52.342;9.662;2023-05-10T14:55:52;7.82;;;3.83;;
11646;SDS011;5880;52.342;9.662;2023-05-10T14:58:17;5.35;;;3.80;;
11646;SDS011;5880;52.342;9.662;2023-05-10T15:00:43;4.72;;;4.22;;
11646;SDS011;5880;52.342;9.662;2023-05-10T15:03:09;6.82;;;5.28;;
11646;SDS011;5880;52.342;9.662;2023-05-10T15:05:34;5.22;;;4.72;;
11646;SDS011;5880;52.342;9.662;2023-05-10T15:08:02;5.65;;;4.80;;
11646;SDS011;5880;52.342;9.662;2023-05-10T15:10:28;5.20;;;4.63;;
11646;SDS011;5880;52.342;9.662;2023-05-10T15:12:53;5.43;;;4.93;;
11646;SDS011;5880;52.342;9.662;2023-05-10T15:15:19;7.38;;;5.30;;
11646;SDS011;5880;52.342;9.662;2023-05-10T15:17:45;7.57;;;5.72;;
11646;SDS011;5880;52.342;9.662;2023-05-10T15:20:11;6.43;;;5.75;;
11646;SDS011;5880;52.342;9.662;2023-05-10T15:22:36;7.47;;;6.10;;
11646;SDS011;5880;52.342;9.662;2023-05-10T15:25:03;6.88;;;5.78;;
11646;SDS011;5880;52.342;9.662;2023-05-10T15:27:29;7.50;;;5.70;;
11646;SDS011;5880;52.342;9.662;2023-05-10T15:29:55;6.15;;;5.55;;
11646;SDS011;5880;52.342;9.662;2023-05-10T15:32:21;6.32;;;5.15;;